Time;durP1;ratioP1;P1;durP2;ratioP2;P2;SDS_P1;SDS_P2;PMS_P1;PMS_P2;Temp;Humidity;BMP_temperature;BMP_pressure;BME280_temperature;BME280_humidity;BME280_pressure;Samples;Min_cycle;Max_cycle;Signal;HPM_P1;HPM_P2
2023/03/31 00:00:18;;;;;;;26.13;16.70;;;;;;;;;;768314;181;621226;-78
2023/03/31 00:02:44;;;;;;;23.57;16.07;;;;;;;;;;760381;181;644058;-81
2023/03/31 00:05:10;;;;;;;24.70;14.87;;;;;;;;;;769514;182;630395;-80
2023/03/31 00:07:37;;;;;;;19.50;14.87;;;;;;;;;;766934;183;637600;-78
2023/03/31 00:10:03;;;;;;;25.77;15.80;;;;;;;;;;769653;180;631258;-79
2023/03/31 00:12:28;;;;;;;23.10;15.30;;;;;;;;;;767636;182;609589;-79
2023/03/31 00:14:54;;;;;;;19.53;13.97;;;;;;;;;;764994;181;628707;-79
2023/03/31 00:17:20;;;;;;;21.20;15.93;;;;;;;;;;754626;182;637050;-80
2023/03/31 00:19:48;;;;;;;23.20;17.03;;;;;;;;;;765318;182;627887;-78
2023/03/31 00:22:12;;;;;;;21.23;15.07;;;;;;;;;;763885;183;638934;-77
2023/03/31 00:24:38;;;;;;;21.87;15.80;;;;;;;;;;761867;182;676391;-78
2023/03/31 00:27:04;;;;;;;20.30;15.97;;;;;;;;;;754916;183;627655;-79
2023/03/31 00:29:30;;;;;;;21.33;15.67;;;;;;;;;;769059;182;625036;-79
2023/03/31 00:31:55;;;;;;;20.37;13.83;;;;;;;;;;764533;182;628070;-77
2023/03/31 00:34:21;;;;;;;23.80;15.93;;;;;;;;;;763508;181;634218;-81
2023/03/31 00:36:47;;;;;;;24.90;14.90;;;;;;;;;;766825;182;626004;-79
2023/03/31 00:39:14;;;;;;;26.47;16.30;;;;;;;;;;763824;181;624045;-79
2023/03/31 00:41:40;;;;;;;22.50;15.03;;;;;;;;;;755584;184;664591;-77
2023/03/31 00:44:17;;;;;;;26.53;15.70;;;;;;;;;;752657;184;616163;-78
2023/03/31 00:46:41;;;;;;;20.87;14.13;;;;;;;;;;755949;186;629027;-78
2023/03/31 00:49:06;;;;;;;20.60;14.23;;;;;;;;;;766931;182;623574;-78
2023/03/31 00:51:32;;;;;;;22.17;14.67;;;;;;;;;;759557;181;638577;-78
2023/03/31 00:53:59;;;;;;;22.20;14.40;;;;;;;;;;766541;182;631484;-78
2023/03/31 00:56:25;;;;;;;18.10;12.07;;;;;;;;;;758613;184;621462;-79
2023/03/31 00:58:52;;;;;;;21.97;13.30;;;;;;;;;;760413;184;708225;-77
2023/03/31 01:01:16;;;;;;;16.30;11.50;;;;;;;;;;768529;182;615475;-79
2023/03/31 01:03:44;;;;;;;18.40;11.47;;;;;;;;;;758080;182;635389;-78
2023/03/31 01:06:09;;;;;;;16.30;11.77;;;;;;;;;;763322;181;627683;-79
2023/03/31 01:08:35;;;;;;;17.10;11.40;;;;;;;;;;769622;180;719357;-79
2023/03/31 01:11:00;;;;;;;12.80;9.90;;;;;;;;;;771225;181;631267;-79
2023/03/31 01:13:26;;;;;;;18.40;11.43;;;;;;;;;;754800;184;632353;-79
2023/03/31 01:15:52;;;;;;;16.53;11.13;;;;;;;;;;757282;184;639753;-80
2023/03/31 01:18:20;;;;;;;14.57;11.47;;;;;;;;;;762463;182;628545;-79
2023/03/31 01:21:02;;;;;;;14.10;10.63;;;;;;;;;;767284;184;624217;-77
2023/03/31 01:23:32;;;;;;;16.63;11.67;;;;;;;;;;769028;183;629178;-79
2023/03/31 01:26:04;;;;;;;22.50;13.77;;;;;;;;;;767583;182;627691;-78
2023/03/31 01:28:30;;;;;;;15.87;11.00;;;;;;;;;;768365;182;642879;-78
2023/03/31 01:31:12;;;;;;;20.43;12.10;;;;;;;;;;748725;182;627194;-78
2023/03/31 01:33:53;;;;;;;16.30;11.12;;;;;;;;;;758951;185;636774;-80
2023/03/31 01:36:24;;;;;;;13.73;10.10;;;;;;;;;;742000;188;628499;-76
2023/03/31 01:38:56;;;;;;;15.23;11.00;;;;;;;;;;757589;187;643412;-78
2023/03/31 01:41:38;;;;;;;15.93;11.40;;;;;;;;;;756123;184;627862;-78
2023/03/31 01:44:09;;;;;;;13.27;9.53;;;;;;;;;;764437;182;624441;-78
2023/03/31 01:46:35;;;;;;;12.50;9.10;;;;;;;;;;761224;183;625999;-78
2023/03/31 01:49:01;;;;;;;11.80;9.07;;;;;;;;;;755403;183;635165;-79
2023/03/31 01:51:33;;;;;;;13.57;9.97;;;;;;;;;;763573;182;633490;-78
2023/03/31 01:54:00;;;;;;;23.90;10.97;;;;;;;;;;752354;182;634656;-76
2023/03/31 01:56:31;;;;;;;13.93;10.90;;;;;;;;;;765350;182;642927;-78
2023/03/31 01:58:57;;;;;;;12.50;8.57;;;;;;;;;;764843;181;634697;-78
2023/03/31 02:01:39;;;;;;;16.40;11.50;;;;;;;;;;764507;180;625903;-78
2023/03/31 02:04:06;;;;;;;16.93;11.27;;;;;;;;;;755646;185;649002;-79
2023/03/31 02:06:33;;;;;;;13.17;10.77;;;;;;;;;;767907;180;615516;-79
2023/03/31 02:08:58;;;;;;;17.30;11.80;;;;;;;;;;758659;184;615362;-79
2023/03/31 02:11:24;;;;;;;15.83;11.80;;;;;;;;;;770661;182;618802;-78
2023/03/31 02:13:51;;;;;;;19.03;12.17;;;;;;;;;;761142;184;626090;-80
2023/03/31 02:16:17;;;;;;;19.20;11.70;;;;;;;;;;760436;182;659609;-79
2023/03/31 02:18:42;;;;;;;17.85;11.75;;;;;;;;;;758883;185;637404;-78
2023/03/31 02:21:08;;;;;;;16.80;12.13;;;;;;;;;;763120;182;624392;-79
2023/03/31 02:23:34;;;;;;;15.90;11.80;;;;;;;;;;761926;183;630616;-79
2023/03/31 02:26:03;;;;;;;15.00;10.20;;;;;;;;;;768982;182;624374;-79
2023/03/31 02:28:29;;;;;;;21.20;12.40;;;;;;;;;;769594;181;627172;-79
2023/03/31 02:30:58;;;;;;;17.13;11.20;;;;;;;;;;763166;180;633262;-77
2023/03/31 02:33:24;;;;;;;14.80;11.00;;;;;;;;;;765107;184;631063;-79
2023/03/31 02:35:50;;;;;;;15.77;11.87;;;;;;;;;;765152;184;628326;-79
2023/03/31 02:38:15;;;;;;;19.80;11.50;;;;;;;;;;763689;181;621468;-78
2023/03/31 02:40:41;;;;;;;18.67;11.27;;;;;;;;;;767264;182;642841;-79
2023/03/31 02:43:07;;;;;;;22.02;13.43;;;;;;;;;;763220;183;640486;-78
2023/03/31 02:45:41;;;;;;;21.90;12.50;;;;;;;;;;764722;182;647607;-79
2023/03/31 02:48:06;;;;;;;16.70;12.13;;;;;;;;;;761479;183;632765;-79
2023/03/31 02:50:32;;;;;;;22.50;12.90;;;;;;;;;;761679;180;630420;-79
2023/03/31 02:52:59;;;;;;;17.93;11.67;;;;;;;;;;754918;182;625648;-79
2023/03/31 02:55:26;;;;;;;15.90;11.27;;;;;;;;;;763535;183;635153;-79
2023/03/31 02:57:57;;;;;;;18.47;12.23;;;;;;;;;;761250;182;641028;-78
2023/03/31 03:00:25;;;;;;;21.90;11.67;;;;;;;;;;755358;182;660899;-79
2023/03/31 03:02:51;;;;;;;18.77;11.23;;;;;;;;;;765861;181;637282;-78
2023/03/31 03:05:37;;;;;;;20.20;10.23;;;;;;;;;;761358;184;627390;-79
2023/03/31 03:08:04;;;;;;;68.20;15.67;;;;;;;;;;760047;184;627561;-78
2023/03/31 03:10:32;;;;;;;13.30;10.80;;;;;;;;;;758357;184;639974;-79
2023/03/31 03:12:58;;;;;;;13.13;9.60;;;;;;;;;;758623;184;629986;-79
2023/03/31 03:15:24;;;;;;;15.50;10.37;;;;;;;;;;755883;185;627300;-78
2023/03/31 03:17:50;;;;;;;14.17;10.10;;;;;;;;;;756964;183;636036;-78
2023/03/31 03:20:16;;;;;;;12.70;9.10;;;;;;;;;;766570;182;645590;-79
2023/03/31 03:22:42;;;;;;;18.90;9.67;;;;;;;;;;764413;181;675465;-78
2023/03/31 03:25:09;;;;;;;21.90;10.90;;;;;;;;;;762139;184;636877;-78
2023/03/31 03:27:34;;;;;;;75.40;15.07;;;;;;;;;;759642;182;629237;-79
2023/03/31 03:30:03;;;;;;;65.90;15.63;;;;;;;;;;759999;181;656330;-79
2023/03/31 03:32:26;;;;;;;64.20;16.67;;;;;;;;;;766776;181;621155;-78
2023/03/31 03:34:52;;;;;;;104.93;17.77;;;;;;;;;;754803;183;632428;-78
2023/03/31 03:37:18;;;;;;;46.13;15.33;;;;;;;;;;766830;181;636411;-78
2023/03/31 03:39:44;;;;;;;116.63;17.60;;;;;;;;;;761793;183;674581;-78
2023/03/31 03:42:09;;;;;;;162.97;21.03;;;;;;;;;;752616;182;662613;-79
2023/03/31 03:44:35;;;;;;;128.03;20.03;;;;;;;;;;759314;182;666532;-79
2023/03/31 03:47:01;;;;;;;50.72;16.10;;;;;;;;;;758174;185;636823;-78
2023/03/31 03:49:27;;;;;;;21.07;12.90;;;;;;;;;;758968;182;627189;-78
2023/03/31 03:51:53;;;;;;;23.40;13.00;;;;;;;;;;759352;183;631351;-79
2023/03/31 03:54:19;;;;;;;20.33;12.03;;;;;;;;;;764059;182;653331;-79
2023/03/31 03:56:45;;;;;;;219.73;22.77;;;;;;;;;;759401;184;631222;-78
2023/03/31 03:59:11;;;;;;;113.20;18.00;;;;;;;;;;747360;184;621991;-79
2023/03/31 04:01:37;;;;;;;150.50;19.40;;;;;;;;;;753677;182;656053;-79
2023/03/31 04:04:03;;;;;;;143.70;20.80;;;;;;;;;;770387;181;624335;-78
2023/03/31 04:06:29;;;;;;;41.00;14.33;;;;;;;;;;766684;182;663946;-78
2023/03/31 04:08:55;;;;;;;18.50;12.83;;;;;;;;;;761897;182;646737;-79
2023/03/31 04:11:21;;;;;;;21.55;13.90;;;;;;;;;;768440;182;670242;-78
2023/03/31 04:13:47;;;;;;;20.37;13.73;;;;;;;;;;753915;182;635950;-77
2023/03/31 04:16:13;;;;;;;16.37;13.20;;;;;;;;;;758418;185;650620;-79
2023/03/31 04:18:45;;;;;;;17.37;12.40;;;;;;;;;;761129;185;632670;-80
2023/03/31 04:21:05;;;;;;;21.07;14.00;;;;;;;;;;756303;182;628766;-76
2023/03/31 04:23:31;;;;;;;18.97;13.37;;;;;;;;;;758540;183;632137;-78
2023/03/31 04:25:57;;;;;;;22.30;14.80;;;;;;;;;;762819;181;651715;-77
2023/03/31 04:28:25;;;;;;;17.63;12.47;;;;;;;;;;767347;182;629797;-77
2023/03/31 04:30:49;;;;;;;17.73;12.67;;;;;;;;;;762835;181;630305;-77
2023/03/31 04:33:16;;;;;;;22.27;14.47;;;;;;;;;;766833;182;636559;-77
2023/03/31 04:35:48;;;;;;;20.23;12.70;;;;;;;;;;772637;180;677814;-78
2023/03/31 04:38:08;;;;;;;17.80;12.50;;;;;;;;;;755065;185;654355;-76
2023/03/31 04:40:34;;;;;;;18.20;11.93;;;;;;;;;;763027;183;644585;-78
2023/03/31 04:42:59;;;;;;;19.10;12.57;;;;;;;;;;760967;182;662004;-78
2023/03/31 04:45:25;;;;;;;19.77;12.03;;;;;;;;;;754163;182;663820;-77
2023/03/31 04:47:51;;;;;;;19.40;15.10;;;;;;;;;;767789;182;625902;-77
2023/03/31 04:50:17;;;;;;;19.70;13.10;;;;;;;;;;761324;181;629906;-79
2023/03/31 04:52:43;;;;;;;18.37;13.90;;;;;;;;;;772858;182;632038;-77
2023/03/31 04:55:09;;;;;;;20.90;14.17;;;;;;;;;;766008;182;625091;-77
2023/03/31 04:57:36;;;;;;;19.33;12.60;;;;;;;;;;762766;183;630624;-77
2023/03/31 05:00:01;;;;;;;19.40;12.33;;;;;;;;;;767184;182;647383;-79
2023/03/31 05:02:27;;;;;;;19.93;13.50;;;;;;;;;;761979;181;656074;-79
2023/03/31 05:04:52;;;;;;;20.00;13.53;;;;;;;;;;762824;183;629338;-79
2023/03/31 05:07:18;;;;;;;18.57;13.97;;;;;;;;;;760844;182;617808;-78
2023/03/31 05:09:44;;;;;;;31.37;19.03;;;;;;;;;;768877;182;628251;-79
2023/03/31 05:12:10;;;;;;;25.67;15.70;;;;;;;;;;759952;180;630123;-77
2023/03/31 05:14:36;;;;;;;38.70;22.20;;;;;;;;;;758755;183;625324;-79
2023/03/31 05:17:02;;;;;;;33.47;16.93;;;;;;;;;;762450;184;616186;-77
2023/03/31 05:19:28;;;;;;;32.47;18.30;;;;;;;;;;750553;184;648153;-78
2023/03/31 05:21:53;;;;;;;26.67;16.13;;;;;;;;;;761761;181;629165;-78
2023/03/31 05:24:19;;;;;;;21.70;16.40;;;;;;;;;;766179;182;624272;-79
2023/03/31 05:26:51;;;;;;;26.17;13.33;;;;;;;;;;762223;185;623857;-77
2023/03/31 05:29:11;;;;;;;35.10;20.63;;;;;;;;;;762012;182;663350;-79
2023/03/31 05:31:37;;;;;;;36.63;20.17;;;;;;;;;;754571;184;626019;-79
2023/03/31 05:34:03;;;;;;;26.33;17.50;;;;;;;;;;752734;187;624112;-77
2023/03/31 05:36:29;;;;;;;27.37;17.07;;;;;;;;;;767693;181;653416;-78
2023/03/31 05:38:54;;;;;;;23.60;14.77;;;;;;;;;;752800;185;629892;-77
2023/03/31 05:41:20;;;;;;;25.80;15.50;;;;;;;;;;761198;182;617107;-79
2023/03/31 05:43:46;;;;;;;18.67;13.47;;;;;;;;;;760195;184;627660;-79
2023/03/31 05:46:12;;;;;;;21.43;12.80;;;;;;;;;;768112;179;640228;-79
2023/03/31 05:48:38;;;;;;;18.83;13.57;;;;;;;;;;767232;181;656146;-78
2023/03/31 05:51:04;;;;;;;27.93;16.90;;;;;;;;;;764216;181;629625;-79
2023/03/31 05:53:30;;;;;;;30.23;16.80;;;;;;;;;;766315;177;656749;-80
2023/03/31 05:55:57;;;;;;;27.10;17.83;;;;;;;;;;768117;181;680542;-79
2023/03/31 05:58:22;;;;;;;18.30;14.83;;;;;;;;;;750409;184;641414;-78
2023/03/31 06:00:48;;;;;;;29.83;16.63;;;;;;;;;;757798;183;627130;-78
2023/03/31 06:03:14;;;;;;;23.63;16.30;;;;;;;;;;768900;182;656906;-79
2023/03/31 06:05:40;;;;;;;24.40;17.67;;;;;;;;;;769610;182;640359;-79
2023/03/31 06:08:06;;;;;;;39.13;27.43;;;;;;;;;;757065;185;626761;-78
2023/03/31 06:10:32;;;;;;;32.60;23.13;;;;;;;;;;753077;182;640527;-78
2023/03/31 06:12:58;;;;;;;25.20;18.00;;;;;;;;;;760521;182;627270;-77
2023/03/31 06:15:24;;;;;;;20.00;14.03;;;;;;;;;;753617;184;644921;-80
2023/03/31 06:17:50;;;;;;;16.70;12.37;;;;;;;;;;752244;187;634551;-80
2023/03/31 06:20:16;;;;;;;18.60;13.97;;;;;;;;;;756077;184;633444;-80
2023/03/31 06:22:42;;;;;;;18.00;12.00;;;;;;;;;;744217;186;627051;-77
2023/03/31 06:25:08;;;;;;;14.50;11.73;;;;;;;;;;761947;183;621473;-78
2023/03/31 06:27:35;;;;;;;15.87;11.63;;;;;;;;;;753564;183;634579;-80
2023/03/31 06:30:01;;;;;;;16.43;13.60;;;;;;;;;;760462;183;619508;-80
2023/03/31 06:32:26;;;;;;;15.73;11.07;;;;;;;;;;760178;181;623763;-79
2023/03/31 06:34:52;;;;;;;20.83;11.53;;;;;;;;;;766703;182;636768;-80
2023/03/31 06:37:18;;;;;;;13.43;11.03;;;;;;;;;;771971;182;621824;-80
2023/03/31 06:39:44;;;;;;;15.63;12.53;;;;;;;;;;756062;182;628755;-78
2023/03/31 06:42:10;;;;;;;16.27;12.80;;;;;;;;;;764652;181;652679;-78
2023/03/31 06:44:36;;;;;;;13.70;10.00;;;;;;;;;;758399;183;631589;-78
2023/03/31 06:47:02;;;;;;;12.40;8.73;;;;;;;;;;760094;183;643233;-78
2023/03/31 06:49:29;;;;;;;12.00;9.90;;;;;;;;;;765363;182;693015;-78
2023/03/31 06:51:55;;;;;;;12.93;9.00;;;;;;;;;;765806;181;787032;-80
2023/03/31 06:54:21;;;;;;;9.30;6.80;;;;;;;;;;770529;181;685936;-79
2023/03/31 06:56:47;;;;;;;10.43;6.83;;;;;;;;;;763145;181;634179;-78
2023/03/31 06:59:12;;;;;;;8.50;6.03;;;;;;;;;;762380;180;618636;-79
2023/03/31 07:01:41;;;;;;;7.87;5.63;;;;;;;;;;769056;181;634229;-79
2023/03/31 07:04:04;;;;;;;8.03;5.30;;;;;;;;;;770153;180;639888;-77
2023/03/31 07:06:30;;;;;;;9.80;5.30;;;;;;;;;;764527;183;648893;-79
2023/03/31 07:08:56;;;;;;;8.40;4.93;;;;;;;;;;763612;182;630707;-81
2023/03/31 07:11:22;;;;;;;6.27;4.63;;;;;;;;;;770351;181;625252;-80
2023/03/31 07:13:48;;;;;;;6.30;4.37;;;;;;;;;;772300;179;643297;-80
2023/03/31 07:16:13;;;;;;;6.40;4.40;;;;;;;;;;756146;181;724768;-79
2023/03/31 07:18:40;;;;;;;5.57;4.20;;;;;;;;;;762922;182;641018;-80
2023/03/31 07:21:06;;;;;;;3.90;3.10;;;;;;;;;;762257;183;629614;-80
2023/03/31 07:23:31;;;;;;;5.30;3.67;;;;;;;;;;761737;183;658850;-81
2023/03/31 07:26:01;;;;;;;5.13;3.20;;;;;;;;;;760816;182;634288;-81
2023/03/31 07:28:23;;;;;;;5.00;3.43;;;;;;;;;;752152;184;625698;-80
2023/03/31 07:30:49;;;;;;;10.17;3.67;;;;;;;;;;760577;184;635801;-78
2023/03/31 07:33:15;;;;;;;8.50;4.37;;;;;;;;;;769969;182;631860;-78
2023/03/31 07:35:40;;;;;;;5.13;3.47;;;;;;;;;;764261;181;628198;-79
2023/03/31 07:38:06;;;;;;;4.70;3.50;;;;;;;;;;762719;181;628486;-79
2023/03/31 07:40:32;;;;;;;4.83;3.30;;;;;;;;;;762118;182;624060;-78
2023/03/31 07:42:58;;;;;;;8.53;3.83;;;;;;;;;;769902;181;618155;-81
2023/03/31 07:45:24;;;;;;;5.53;3.80;;;;;;;;;;753302;185;631848;-79
2023/03/31 07:47:49;;;;;;;5.60;3.73;;;;;;;;;;752802;185;632308;-80
2023/03/31 07:50:15;;;;;;;5.20;3.70;;;;;;;;;;760134;185;663783;-79
2023/03/31 07:52:41;;;;;;;5.10;3.30;;;;;;;;;;761647;185;676519;-79
2023/03/31 07:55:07;;;;;;;6.63;3.50;;;;;;;;;;765569;181;628263;-80
2023/03/31 07:57:33;;;;;;;6.43;3.30;;;;;;;;;;769760;183;631227;-81
2023/03/31 07:59:59;;;;;;;15.00;4.23;;;;;;;;;;758638;183;632397;-79
2023/03/31 08:02:25;;;;;;;8.23;4.00;;;;;;;;;;756465;181;628279;-80
2023/03/31 08:04:50;;;;;;;6.93;3.63;;;;;;;;;;761456;181;616741;-81
2023/03/31 08:07:16;;;;;;;5.60;3.73;;;;;;;;;;763212;183;633352;-81
2023/03/31 08:09:42;;;;;;;6.10;3.67;;;;;;;;;;764331;180;629184;-81
2023/03/31 08:12:08;;;;;;;4.87;3.70;;;;;;;;;;752543;186;628402;-79
2023/03/31 08:14:34;;;;;;;4.50;2.90;;;;;;;;;;757439;181;630481;-80
2023/03/31 08:17:00;;;;;;;6.93;4.30;;;;;;;;;;760177;180;644858;-81
2023/03/31 08:19:26;;;;;;;7.00;3.53;;;;;;;;;;761335;182;629939;-80
2023/03/31 08:21:52;;;;;;;9.10;5.10;;;;;;;;;;759346;184;610699;-79
2023/03/31 08:24:18;;;;;;;5.70;3.60;;;;;;;;;;755414;183;654242;-80
2023/03/31 08:26:45;;;;;;;5.40;3.93;;;;;;;;;;765648;182;637586;-79
2023/03/31 08:29:11;;;;;;;7.97;3.50;;;;;;;;;;775623;179;749077;-82
2023/03/31 08:31:36;;;;;;;5.83;4.40;;;;;;;;;;748502;184;627688;-81
2023/03/31 08:34:03;;;;;;;5.13;4.00;;;;;;;;;;767580;180;689914;-80
2023/03/31 08:36:28;;;;;;;7.10;3.90;;;;;;;;;;763741;182;672580;-80
2023/03/31 08:38:54;;;;;;;6.80;3.10;;;;;;;;;;770603;182;624633;-80
2023/03/31 08:41:21;;;;;;;6.43;3.47;;;;;;;;;;758859;182;701155;-80
2023/03/31 08:43:47;;;;;;;5.60;3.03;;;;;;;;;;760548;182;660807;-79
2023/03/31 08:46:12;;;;;;;4.87;3.67;;;;;;;;;;766018;181;664725;-81
2023/03/31 08:48:44;;;;;;;5.10;3.17;;;;;;;;;;764682;181;708670;-81
2023/03/31 08:51:06;;;;;;;9.87;6.10;;;;;;;;;;763024;182;658925;-81
2023/03/31 08:53:32;;;;;;;5.30;3.60;;;;;;;;;;762504;181;645040;-80
2023/03/31 08:55:58;;;;;;;10.23;3.80;;;;;;;;;;760508;184;662565;-81
2023/03/31 08:58:38;;;;;;;7.03;3.67;;;;;;;;;;746618;188;670990;-81
2023/03/31 09:01:15;;;;;;;10.13;4.13;;;;;;;;;;752785;184;625157;-79
2023/03/31 09:03:46;;;;;;;7.30;3.57;;;;;;;;;;756068;182;678850;-81
2023/03/31 09:06:27;;;;;;;6.77;3.57;;;;;;;;;;748803;187;638372;-80
2023/03/31 09:08:53;;;;;;;7.67;4.27;;;;;;;;;;752070;183;630879;-80
2023/03/31 09:11:19;;;;;;;4.60;3.90;;;;;;;;;;757368;185;626712;-79
2023/03/31 09:13:47;;;;;;;6.83;4.00;;;;;;;;;;765956;182;635737;-80
2023/03/31 09:16:12;;;;;;;6.63;4.10;;;;;;;;;;753736;184;646592;-81
2023/03/31 09:18:39;;;;;;;6.63;4.20;;;;;;;;;;754637;184;618811;-80
2023/03/31 09:21:07;;;;;;;9.63;3.90;;;;;;;;;;752426;184;715969;-78
2023/03/31 09:23:34;;;;;;;9.30;4.20;;;;;;;;;;763919;181;773543;-79
2023/03/31 09:26:00;;;;;;;6.27;3.60;;;;;;;;;;764565;181;782346;-80
2023/03/31 09:28:26;;;;;;;9.00;4.13;;;;;;;;;;761304;183;659381;-80
2023/03/31 09:30:51;;;;;;;8.43;4.07;;;;;;;;;;762828;181;737919;-81
2023/03/31 09:33:30;;;;;;;6.90;3.97;;;;;;;;;;751224;183;647398;-82
2023/03/31 09:35:53;;;;;;;6.70;4.30;;;;;;;;;;760395;183;620404;-81
2023/03/31 09:38:19;;;;;;;6.10;3.60;;;;;;;;;;765121;182;637408;-82
2023/03/31 09:40:45;;;;;;;6.30;4.37;;;;;;;;;;761484;181;705815;-82
2023/03/31 09:43:18;;;;;;;6.33;3.80;;;;;;;;;;753571;184;636312;-81
2023/03/31 09:45:44;;;;;;;10.90;4.73;;;;;;;;;;762866;185;625734;-81
2023/03/31 09:48:10;;;;;;;4.90;4.13;;;;;;;;;;761340;182;628388;-79
2023/03/31 09:50:36;;;;;;;6.20;4.33;;;;;;;;;;761737;182;626899;-81
2023/03/31 09:53:02;;;;;;;6.00;3.97;;;;;;;;;;762848;182;627809;-81
2023/03/31 09:55:45;;;;;;;10.30;4.87;;;;;;;;;;768340;181;618475;-80
2023/03/31 09:58:11;;;;;;;13.27;4.90;;;;;;;;;;768431;184;621896;-81
2023/03/31 10:00:37;;;;;;;8.93;3.63;;;;;;;;;;751882;182;656906;-82
2023/03/31 10:03:06;;;;;;;7.43;4.00;;;;;;;;;;756965;184;653109;-82
2023/03/31 10:05:37;;;;;;;10.80;4.83;;;;;;;;;;767539;181;637562;-81
2023/03/31 10:08:08;;;;;;;6.73;3.80;;;;;;;;;;759170;182;628844;-80
2023/03/31 10:10:34;;;;;;;8.33;4.20;;;;;;;;;;752602;182;626144;-79
2023/03/31 10:13:00;;;;;;;6.30;3.90;;;;;;;;;;747100;185;635608;-81
2023/03/31 10:15:26;;;;;;;5.80;4.50;;;;;;;;;;756861;183;636552;-79
2023/03/31 10:17:52;;;;;;;12.43;4.47;;;;;;;;;;763900;183;632291;-82
2023/03/31 10:20:18;;;;;;;7.50;4.70;;;;;;;;;;761101;183;626267;-81
2023/03/31 10:22:44;;;;;;;5.43;3.60;;;;;;;;;;765274;179;654276;-81
2023/03/31 10:25:10;;;;;;;8.60;4.37;;;;;;;;;;752651;184;633346;-80
2023/03/31 10:27:36;;;;;;;7.00;3.83;;;;;;;;;;774302;180;640747;-78
2023/03/31 10:30:02;;;;;;;8.70;4.40;;;;;;;;;;762961;183;653853;-79
2023/03/31 10:32:28;;;;;;;10.27;4.70;;;;;;;;;;753799;185;632071;-79
2023/03/31 10:34:55;;;;;;;6.40;3.97;;;;;;;;;;760132;180;641700;-79
2023/03/31 10:37:21;;;;;;;8.93;4.87;;;;;;;;;;754148;182;647822;-82
2023/03/31 10:39:47;;;;;;;7.60;4.60;;;;;;;;;;763818;182;635356;-80
2023/03/31 10:42:17;;;;;;;16.70;5.27;;;;;;;;;;763770;179;1127417;-81
2023/03/31 10:44:43;;;;;;;6.63;4.73;;;;;;;;;;750418;185;633986;-80
2023/03/31 10:47:21;;;;;;;8.13;4.27;;;;;;;;;;755761;182;620105;-80
2023/03/31 10:49:47;;;;;;;11.83;4.40;;;;;;;;;;764828;180;656614;-81
2023/03/31 10:52:17;;;;;;;7.10;4.87;;;;;;;;;;767486;183;629321;-80
2023/03/31 10:54:46;;;;;;;9.13;4.30;;;;;;;;;;758816;182;623330;-81
2023/03/31 10:57:12;;;;;;;7.23;4.53;;;;;;;;;;763004;182;633683;-82
2023/03/31 10:59:38;;;;;;;10.13;3.83;;;;;;;;;;768568;181;644452;-81
2023/03/31 11:02:04;;;;;;;9.73;4.93;;;;;;;;;;763301;183;653015;-81
2023/03/31 11:04:47;;;;;;;8.33;5.03;;;;;;;;;;757782;184;632424;-81
2023/03/31 11:07:13;;;;;;;7.90;5.00;;;;;;;;;;768793;179;630288;-81
2023/03/31 11:09:49;;;;;;;8.53;4.23;;;;;;;;;;755004;181;1628936;-80
2023/03/31 11:12:15;;;;;;;8.73;4.33;;;;;;;;;;766253;182;622518;-81
2023/03/31 11:14:47;;;;;;;8.60;4.30;;;;;;;;;;758549;182;644050;-81
2023/03/31 11:17:19;;;;;;;10.63;4.60;;;;;;;;;;759322;183;637672;-81
2023/03/31 11:19:45;;;;;;;14.17;4.77;;;;;;;;;;761624;184;623129;-79
2023/03/31 11:22:26;;;;;;;12.47;3.97;;;;;;;;;;763310;183;664655;-81
2023/03/31 11:24:58;;;;;;;11.63;3.40;;;;;;;;;;770782;183;633388;-80
2023/03/31 11:27:29;;;;;;;6.30;3.80;;;;;;;;;;769638;183;636157;-81
2023/03/31 11:30:02;;;;;;;9.47;3.70;;;;;;;;;;763178;184;627748;-79
2023/03/31 11:32:31;;;;;;;8.03;3.20;;;;;;;;;;753581;183;642804;-80
2023/03/31 11:34:57;;;;;;;6.17;3.47;;;;;;;;;;763598;180;712128;-80
2023/03/31 11:37:40;;;;;;;7.13;3.60;;;;;;;;;;766342;181;813791;-82
2023/03/31 11:40:07;;;;;;;12.53;4.17;;;;;;;;;;759968;183;689046;-81
2023/03/31 11:42:33;;;;;;;6.77;3.43;;;;;;;;;;761135;182;660343;-81
2023/03/31 11:45:00;;;;;;;13.90;3.70;;;;;;;;;;765739;181;679412;-79
2023/03/31 11:47:26;;;;;;;5.17;2.93;;;;;;;;;;765609;181;625893;-80
2023/03/31 11:49:53;;;;;;;6.60;2.83;;;;;;;;;;760064;182;641294;-80
2023/03/31 11:52:24;;;;;;;6.17;3.80;;;;;;;;;;768085;182;647063;-81
2023/03/31 11:54:51;;;;;;;5.67;2.60;;;;;;;;;;761735;183;646886;-80
2023/03/31 11:57:17;;;;;;;9.37;3.53;;;;;;;;;;762463;184;627133;-81
2023/03/31 11:59:43;;;;;;;4.63;3.30;;;;;;;;;;766066;182;640361;-81
2023/03/31 12:02:10;;;;;;;6.53;3.10;;;;;;;;;;767854;182;660161;-81
2023/03/31 12:04:36;;;;;;;4.17;3.13;;;;;;;;;;762650;182;859921;-80
2023/03/31 12:07:03;;;;;;;13.83;3.67;;;;;;;;;;759985;182;728006;-80
2023/03/31 12:09:30;;;;;;;7.20;4.03;;;;;;;;;;759675;183;672082;-81
2023/03/31 12:12:05;;;;;;;9.67;5.10;;;;;;;;;;760439;182;635195;-80
2023/03/31 12:14:33;;;;;;;3.50;2.60;;;;;;;;;;761886;183;648664;-80
2023/03/31 12:17:01;;;;;;;11.53;4.43;;;;;;;;;;757160;185;635347;-80
2023/03/31 12:19:27;;;;;;;5.83;4.13;;;;;;;;;;758913;180;688913;-80
2023/03/31 12:22:03;;;;;;;4.87;2.80;;;;;;;;;;756726;181;631290;-81
2023/03/31 12:24:29;;;;;;;5.30;2.80;;;;;;;;;;761447;182;642345;-81
2023/03/31 12:26:56;;;;;;;5.63;3.03;;;;;;;;;;766158;182;663619;-80
2023/03/31 12:29:22;;;;;;;6.70;5.03;;;;;;;;;;761255;181;672693;-80
2023/03/31 12:31:48;;;;;;;6.07;3.30;;;;;;;;;;761095;181;670621;-80
2023/03/31 12:34:14;;;;;;;12.47;3.40;;;;;;;;;;763377;181;651671;-80
2023/03/31 12:36:57;;;;;;;10.17;3.13;;;;;;;;;;756784;184;684617;-81
2023/03/31 12:39:28;;;;;;;5.83;3.10;;;;;;;;;;762524;181;646806;-81
2023/03/31 12:42:00;;;;;;;4.97;2.70;;;;;;;;;;753678;183;723598;-81
2023/03/31 12:44:31;;;;;;;8.03;3.30;;;;;;;;;;755530;182;715938;-80
2023/03/31 12:47:03;;;;;;;7.43;4.23;;;;;;;;;;756075;185;648523;-82
2023/03/31 12:49:46;;;;;;;10.57;3.97;;;;;;;;;;770495;181;663817;-80
2023/03/31 12:52:15;;;;;;;8.10;3.43;;;;;;;;;;770787;181;630227;-80
2023/03/31 12:54:53;;;;;;;10.90;4.03;;;;;;;;;;758881;181;630673;-78
2023/03/31 12:57:20;;;;;;;6.57;4.07;;;;;;;;;;756963;184;713476;-81
2023/03/31 12:59:45;;;;;;;5.80;2.87;;;;;;;;;;753634;182;627509;-82
2023/03/31 13:02:28;;;;;;;5.57;3.50;;;;;;;;;;760007;183;629601;-79
2023/03/31 13:04:54;;;;;;;9.57;3.43;;;;;;;;;;775432;182;667256;-79
2023/03/31 13:07:35;;;;;;;7.23;3.57;;;;;;;;;;763524;182;657072;-80
2023/03/31 13:10:03;;;;;;;6.67;3.73;;;;;;;;;;756945;182;645447;-80
2023/03/31 13:12:31;;;;;;;6.50;3.80;;;;;;;;;;760442;182;665739;-81
2023/03/31 13:14:58;;;;;;;7.70;3.27;;;;;;;;;;764129;182;698048;-79
2023/03/31 13:17:24;;;;;;;9.33;3.13;;;;;;;;;;756555;182;658962;-81
2023/03/31 13:19:50;;;;;;;13.10;4.17;;;;;;;;;;755754;183;642102;-81
2023/03/31 13:22:31;;;;;;;6.93;3.30;;;;;;;;;;752927;184;823540;-79
2023/03/31 13:25:03;;;;;;;5.70;2.90;;;;;;;;;;747816;182;634067;-80
2023/03/31 13:27:29;;;;;;;8.33;3.33;;;;;;;;;;757572;184;655377;-80
2023/03/31 13:29:55;;;;;;;5.63;2.43;;;;;;;;;;777329;177;649450;-79
2023/03/31 13:32:21;;;;;;;6.60;3.37;;;;;;;;;;765366;182;625193;-81
2023/03/31 13:34:48;;;;;;;8.33;4.33;;;;;;;;;;753908;185;653160;-80
2023/03/31 13:37:15;;;;;;;8.73;4.23;;;;;;;;;;763224;181;632106;-80
2023/03/31 13:39:42;;;;;;;6.03;4.07;;;;;;;;;;749806;184;661015;-80
2023/03/31 13:42:22;;;;;;;7.77;4.50;;;;;;;;;;760636;181;632447;-79
2023/03/31 13:44:52;;;;;;;12.40;4.77;;;;;;;;;;761626;185;650958;-82
2023/03/31 13:47:17;;;;;;;6.70;4.00;;;;;;;;;;766694;183;623202;-81
2023/03/31 13:49:46;;;;;;;11.00;5.67;;;;;;;;;;764354;183;639819;-80
2023/03/31 13:52:12;;;;;;;9.63;4.87;;;;;;;;;;751666;185;627790;-80
2023/03/31 13:54:39;;;;;;;7.03;4.50;;;;;;;;;;760040;182;629135;-81
2023/03/31 13:57:11;;;;;;;9.00;5.83;;;;;;;;;;771141;182;624295;-79
2023/03/31 13:59:43;;;;;;;11.30;5.97;;;;;;;;;;756121;182;628135;-79
2023/03/31 14:02:22;;;;;;;9.77;4.63;;;;;;;;;;763305;181;630912;-81
2023/03/31 14:04:54;;;;;;;8.57;4.30;;;;;;;;;;761900;181;631795;-82
2023/03/31 14:07:21;;;;;;;7.80;5.93;;;;;;;;;;765670;183;637741;-81
2023/03/31 14:09:49;;;;;;;9.97;5.07;;;;;;;;;;768155;181;640908;-81
2023/03/31 14:12:19;;;;;;;7.00;3.83;;;;;;;;;;764012;180;636306;-80
2023/03/31 14:14:44;;;;;;;10.63;4.37;;;;;;;;;;765228;180;643132;-80
2023/03/31 14:17:11;;;;;;;7.00;3.70;;;;;;;;;;763972;182;635061;-80